Serene Lakes, California
Current Conditions -  °F | °C
As of 6:52 AM on Wednesday 22 Oct 2014 (Local Time) from KBLU Reporting Station
Clear Clear  
Wind Chill: 47°   Ceiling: Unl
Heat Index: 49°   Visibility: 10mi
Dew Point:   Wind: 5mph
Humidity: 16%   Direction: 100°E
Pressure: 30.13"   Gusts: NA
Location:  39.4261°N, 120.475°W
Report Text: KBLU 221352Z AUTO 10004KT 10SM CLR 09/M16 A3013 RMK AO2 SLP169 T00941156
Loading
Personal Weather Stations






























Interactive Weather Map
Tropical Storm Tracking
New forecast layout! Learn more

10-Day Weather Forecast

Advertisements
Track Severe Weather on mobile